createdAt,value
2023-01-23T09:52:41.882Z,1.40
2023-01-23T09:55:14.047Z,1.38
2023-01-23T09:57:49.834Z,1.33
2023-01-23T10:00:40.881Z,1.30
2023-01-23T10:03:16.474Z,1.10
2023-01-23T10:05:50.870Z,1.20
2023-01-23T10:08:42.902Z,1.13
2023-01-23T10:11:15.791Z,1.00
2023-01-23T10:14:11.452Z,1.25
2023-01-23T10:16:50.102Z,1.23
2023-01-23T10:19:36.065Z,1.08
2023-01-23T10:22:23.158Z,1.27
2023-01-23T10:24:58.350Z,1.38
2023-01-23T10:27:33.838Z,1.23
2023-01-23T10:30:16.206Z,1.38
2023-01-23T10:33:02.714Z,1.10
2023-01-23T10:35:47.225Z,1.10
2023-01-23T10:38:25.962Z,1.10
2023-01-23T10:41:11.488Z,1.10
2023-01-23T10:43:38.386Z,1.20
2023-01-23T10:46:13.328Z,1.05
2023-01-23T10:48:42.153Z,1.25
2023-01-23T10:51:29.591Z,1.20
2023-01-23T10:54:06.267Z,1.05
2023-01-23T10:56:36.352Z,1.10
2023-01-23T10:59:05.539Z,1.00
2023-01-23T11:01:34.330Z,1.10
2023-01-23T11:04:24.610Z,1.45
2023-01-23T11:07:02.474Z,1.20
2023-01-23T11:09:31.109Z,1.10
2023-01-23T11:12:14.409Z,1.10
2023-01-23T11:14:42.485Z,1.15
2023-01-23T11:17:24.875Z,0.93
2023-01-23T11:19:54.447Z,1.08
2023-01-23T11:22:31.182Z,1.00
2023-01-23T11:24:59.085Z,1.02
2023-01-23T11:27:31.172Z,0.90
2023-01-23T11:30:09.664Z,0.90
2023-01-23T11:32:59.470Z,0.90
2023-01-23T11:35:49.927Z,1.00
2023-01-23T11:38:30.203Z,0.98
2023-01-23T11:40:57.924Z,1.42
2023-01-23T11:43:24.875Z,1.20
2023-01-23T11:46:10.310Z,1.30
2023-01-23T11:49:00.789Z,0.90
2023-01-23T11:51:49.090Z,0.88
2023-01-23T11:54:48.147Z,0.90
2023-01-23T11:57:39.482Z,1.25
2023-01-23T12:00:25.088Z,0.80
2023-01-23T12:03:13.031Z,1.02
2023-01-23T12:06:03.051Z,1.02
2023-01-23T12:09:14.646Z,0.90
2023-01-23T12:12:16.706Z,0.80
2023-01-23T12:15:23.065Z,0.90
2023-01-23T12:18:21.820Z,0.88
2023-01-23T12:21:12.774Z,0.90
2023-01-23T12:23:50.688Z,0.90
2023-01-23T12:26:22.536Z,0.90
2023-01-23T12:29:23.757Z,0.93
2023-01-23T12:32:14.870Z,1.00
2023-01-23T12:35:00.154Z,0.95
2023-01-23T12:37:43.304Z,0.90
2023-01-23T12:40:22.807Z,1.17
2023-01-23T12:43:19.488Z,1.10
2023-01-23T12:45:53.179Z,1.10
2023-01-23T12:48:30.991Z,0.95
2023-01-23T12:51:06.300Z,1.00
2023-01-23T12:53:38.171Z,0.90
2023-01-23T12:56:17.379Z,0.90
2023-01-23T12:59:01.317Z,0.90
2023-01-23T13:01:50.666Z,1.23
2023-01-23T13:04:23.377Z,0.90
2023-01-23T13:10:12.188Z,0.90
2023-01-23T13:12:39.227Z,0.80
2023-01-23T13:15:22.717Z,0.90
2023-01-23T13:17:57.316Z,1.35
2023-01-23T13:20:53.810Z,1.15
2023-01-23T13:23:23.635Z,1.13
2023-01-23T13:26:10.927Z,0.80
2023-01-23T13:28:45.634Z,0.88
2023-01-23T13:31:40.581Z,1.10
2023-01-23T13:34:16.877Z,0.90
2023-01-23T13:36:49.115Z,0.90
2023-01-23T13:39:22.027Z,0.98
2023-01-23T13:41:51.738Z,0.77
2023-01-23T13:44:40.735Z,0.88
2023-01-23T14:22:37.906Z,1.00
2023-01-23T14:25:16.764Z,1.10
2023-01-23T14:27:52.953Z,1.00
2023-01-23T14:30:24.913Z,1.00
2023-01-23T14:32:52.187Z,0.95
2023-01-23T14:35:28.225Z,0.90
2023-01-23T14:37:59.074Z,1.00
2023-01-23T14:40:28.750Z,0.90
2023-01-23T14:43:02.239Z,1.00
2023-01-23T14:45:33.316Z,0.90
2023-01-23T14:48:08.490Z,0.90
2023-01-23T14:50:35.749Z,0.90
2023-01-23T14:53:11.862Z,1.13
2023-01-23T14:55:42.728Z,0.90
2023-01-23T14:58:21.323Z,0.90
2023-01-23T15:00:49.399Z,1.20
2023-01-23T15:03:35.303Z,1.10
2023-01-23T15:06:07.447Z,1.02
2023-01-23T15:08:35.990Z,1.02
2023-01-23T15:11:04.696Z,0.80
2023-01-23T15:13:43.682Z,1.00
2023-01-23T15:16:20.401Z,0.80
2023-01-23T15:18:55.518Z,1.10
2023-01-23T15:21:41.980Z,1.00
2023-01-23T15:24:14.717Z,1.10
2023-01-23T15:27:03.702Z,1.10
2023-01-23T15:29:31.436Z,1.20
2023-01-23T15:31:59.373Z,0.93
2023-01-23T15:34:30.773Z,1.00
2023-01-23T15:37:23.285Z,1.13
2023-01-23T15:39:55.521Z,1.08
2023-01-23T15:42:27.999Z,0.90
2023-01-23T15:44:55.072Z,0.88
2023-01-23T15:47:21.912Z,0.90
2023-01-23T15:49:49.386Z,1.00
2023-01-23T15:52:16.173Z,0.95
2023-01-23T15:54:43.126Z,0.90
2023-01-23T15:57:13.000Z,1.23
2023-01-23T15:59:42.368Z,0.85
2023-01-23T16:02:30.206Z,1.10
2023-01-23T16:05:00.903Z,0.98
2023-01-23T16:07:34.485Z,1.00
2023-01-23T16:10:05.091Z,1.00
2023-01-23T16:12:32.889Z,0.80
2023-01-23T16:15:00.906Z,1.08
2023-01-23T16:17:27.843Z,1.10
2023-01-23T16:19:55.578Z,1.08
2023-01-23T16:22:29.223Z,1.15
2023-01-23T16:24:57.580Z,1.10
2023-01-23T16:27:27.871Z,1.00
2023-01-23T16:29:55.841Z,1.20
2023-01-23T16:32:22.935Z,0.90
2023-01-23T16:34:49.923Z,1.17
2023-01-23T16:37:18.672Z,1.20
2023-01-23T16:39:47.266Z,1.05
2023-01-23T16:42:21.700Z,0.90
2023-01-23T16:44:49.026Z,1.05
2023-01-23T16:47:15.812Z,1.42
2023-01-23T16:49:52.213Z,1.00
2023-01-23T16:52:21.676Z,1.00
2023-01-23T16:54:51.272Z,1.10
2023-01-23T16:57:20.405Z,0.80
2023-01-23T16:59:49.916Z,1.20
2023-01-23T17:02:25.928Z,1.23
2023-01-23T17:04:52.843Z,1.00
2023-01-23T17:07:20.662Z,1.08
2023-01-23T17:09:49.163Z,1.20
2023-01-23T17:12:21.073Z,1.00
2023-01-23T17:14:49.076Z,1.38
2023-01-23T17:17:27.796Z,1.20
2023-01-23T17:19:55.168Z,1.02
2023-01-23T17:22:25.947Z,1.20
2023-01-23T17:24:52.889Z,1.20
2023-01-23T17:27:19.681Z,1.20
2023-01-23T17:29:46.596Z,1.70
2023-01-23T17:32:29.665Z,1.33
2023-01-23T17:34:57.590Z,1.20
2023-01-23T17:37:24.560Z,1.15
2023-01-23T17:39:51.939Z,1.30
2023-01-23T17:42:18.844Z,1.00
2023-01-23T17:44:45.624Z,1.20
2023-01-23T17:47:13.808Z,1.10
2023-01-23T17:49:42.966Z,1.33
2023-01-23T17:52:11.736Z,1.20
2023-01-23T17:54:38.947Z,0.95
2023-01-23T17:57:05.769Z,1.27
2023-01-23T17:59:32.556Z,1.10
2023-01-23T18:01:59.437Z,1.23
2023-01-23T18:04:26.260Z,1.08
2023-01-23T18:06:53.072Z,1.00
2023-01-23T18:09:21.088Z,1.20
2023-01-23T18:11:52.387Z,1.00
2023-01-23T18:14:22.076Z,1.13
2023-01-23T18:16:50.273Z,1.08
2023-01-23T18:19:26.100Z,1.00
2023-01-23T18:21:55.808Z,1.20
2023-01-23T18:24:27.339Z,1.40
2023-01-23T18:27:12.790Z,2.85
2023-01-23T18:30:00.974Z,1.50
2023-01-23T18:32:30.751Z,1.20
2023-01-23T18:35:45.008Z,1.63
2023-01-23T18:38:14.796Z,1.13
2023-01-23T18:41:11.408Z,1.23
2023-01-23T18:43:54.303Z,1.63
2023-01-23T18:48:49.748Z,1.70
2023-01-23T18:51:22.015Z,1.30
2023-01-23T18:53:57.001Z,1.38
2023-01-23T18:56:44.792Z,2.63
2023-01-23T18:59:29.848Z,1.98
2023-01-23T19:02:19.870Z,1.85
2023-01-23T19:04:53.670Z,2.03
2023-01-23T19:07:20.705Z,1.50
2023-01-23T19:09:48.439Z,1.38
2023-01-23T19:12:41.195Z,1.77
2023-01-23T19:15:16.823Z,1.30
2023-01-23T19:18:16.879Z,1.05
2023-01-23T19:20:51.428Z,1.17
2023-01-23T19:23:44.158Z,1.33
2023-01-23T19:26:15.750Z,0.82
2023-01-23T19:28:43.019Z,1.10
2023-01-23T19:31:30.413Z,1.02
2023-01-23T19:33:58.817Z,1.48
2023-01-23T19:36:27.294Z,1.27
2023-01-23T19:39:00.547Z,1.35
2023-01-23T19:41:31.052Z,1.20
2023-01-23T19:43:58.837Z,1.58
2023-01-23T19:46:29.592Z,1.27
2023-01-23T19:48:57.749Z,1.13
2023-01-23T19:51:28.898Z,1.27
2023-01-23T19:53:58.554Z,1.55
2023-01-23T19:56:25.589Z,1.52
2023-01-23T19:58:52.554Z,1.38
2023-01-23T20:01:31.346Z,1.70
2023-01-23T20:03:58.341Z,1.38
2023-01-23T20:06:25.233Z,1.40
2023-01-23T20:08:52.244Z,1.50
2023-01-23T20:11:19.320Z,1.52
2023-01-23T20:13:46.404Z,1.90
2023-01-23T20:16:21.046Z,1.40
2023-01-23T20:18:49.161Z,1.20
2023-01-23T20:21:17.765Z,1.67
2023-01-23T20:23:48.139Z,1.60
2023-01-23T20:26:16.541Z,1.58
2023-01-23T20:28:43.648Z,1.35
2023-01-23T20:31:12.492Z,1.20
2023-01-23T20:33:40.235Z,1.63
2023-01-23T20:36:10.831Z,1.38
2023-01-23T20:38:39.690Z,1.25
2023-01-23T20:41:09.897Z,1.40
2023-01-23T20:43:38.839Z,1.45
2023-01-23T20:46:07.399Z,1.63
2023-01-23T20:48:36.112Z,1.40
2023-01-23T20:51:21.682Z,1.38
2023-01-23T20:53:50.668Z,1.30
2023-01-23T20:56:20.988Z,1.58
2023-01-23T20:59:08.147Z,1.70
2023-01-23T21:01:56.312Z,1.52
2023-01-23T21:04:25.816Z,1.38
2023-01-23T21:06:52.731Z,1.70
2023-01-23T21:09:19.991Z,1.50
2023-01-23T21:11:46.953Z,1.92
2023-01-23T21:14:13.833Z,1.75
2023-01-23T21:16:40.690Z,1.77
2023-01-23T21:19:07.617Z,1.75
2023-01-23T21:21:35.088Z,2.28
2023-01-23T21:24:02.099Z,1.40
2023-01-23T21:26:29.451Z,1.60
2023-01-23T21:28:57.761Z,1.23
2023-01-23T21:31:24.669Z,1.45
2023-01-23T21:33:52.073Z,1.45
2023-01-23T21:36:22.932Z,1.38
2023-01-23T21:38:51.469Z,1.73
2023-01-23T21:41:19.286Z,1.90
2023-01-23T21:43:46.441Z,1.30
2023-01-23T21:46:13.677Z,1.48
2023-01-23T21:48:41.021Z,1.80
2023-01-23T21:51:19.628Z,1.90
2023-01-23T21:53:48.155Z,1.48
2023-01-23T21:56:17.260Z,2.03
2023-01-23T21:58:44.158Z,1.42
2023-01-23T22:01:32.412Z,1.33
